createdAt,value
2022-12-09T00:01:24.217Z,2.32
2022-12-09T00:03:53.058Z,2.29
2022-12-09T00:06:25.582Z,2.32
2022-12-09T00:08:54.855Z,2.30
2022-12-09T00:11:24.340Z,2.31
2022-12-09T00:13:54.277Z,2.30
2022-12-09T00:16:24.642Z,1.75
2022-12-09T00:18:54.065Z,2.25
2022-12-09T00:21:26.621Z,2.01
2022-12-09T00:23:59.753Z,2.24
2022-12-09T00:26:29.617Z,2.13
2022-12-09T00:28:59.391Z,2.24
2022-12-09T00:31:31.988Z,2.04
2022-12-09T00:34:05.009Z,2.23
2022-12-09T00:36:35.239Z,2.11
2022-12-09T00:39:04.068Z,2.26
2022-12-09T00:41:32.700Z,2.28
2022-12-09T00:44:01.436Z,2.32
2022-12-09T00:46:30.377Z,2.32
2022-12-09T00:48:59.349Z,2.32
2022-12-09T00:51:28.141Z,2.34
2022-12-09T00:53:58.177Z,2.38
2022-12-09T00:56:30.116Z,2.33
2022-12-09T00:58:59.992Z,2.39
2022-12-09T01:01:29.176Z,2.35
2022-12-09T01:03:58.234Z,2.34
2022-12-09T01:06:28.269Z,2.33
2022-12-09T01:08:58.064Z,2.16
2022-12-09T01:11:29.548Z,2.36
2022-12-09T01:14:01.727Z,2.39
2022-12-09T01:16:33.478Z,2.35
2022-12-09T01:19:06.379Z,2.42
2022-12-09T01:21:36.113Z,2.42
2022-12-09T01:24:12.766Z,2.15
2022-12-09T01:26:41.664Z,2.46
2022-12-09T01:29:10.359Z,2.47
2022-12-09T01:31:39.239Z,2.47
2022-12-09T01:34:08.158Z,2.46
2022-12-09T01:36:36.912Z,2.42
2022-12-09T01:39:06.339Z,2.40
2022-12-09T01:41:36.285Z,2.43
2022-12-09T01:44:18.881Z,2.31
2022-12-09T01:46:48.844Z,2.43
2022-12-09T01:49:23.362Z,1.64
2022-12-09T01:52:04.635Z,2.38
2022-12-09T01:54:34.680Z,2.10
2022-12-09T01:57:07.203Z,2.31
2022-12-09T01:59:37.935Z,2.28
2022-12-09T02:02:12.823Z,2.26
2022-12-09T02:04:46.103Z,2.24
2022-12-09T02:07:15.736Z,2.25
2022-12-09T02:09:45.070Z,2.26
2022-12-09T02:12:18.148Z,2.00
2022-12-09T02:14:57.746Z,2.26
2022-12-09T02:17:36.264Z,2.26
2022-12-09T02:20:20.497Z,1.93
2022-12-09T02:22:59.432Z,1.87
2022-12-09T02:25:34.605Z,1.98
2022-12-09T02:28:48.291Z,2.14
2022-12-09T02:31:39.217Z,2.09
2022-12-09T02:34:16.195Z,2.08
2022-12-09T02:37:00.597Z,2.07
2022-12-09T02:39:37.867Z,1.76
2022-12-09T02:42:13.442Z,2.12
2022-12-09T02:44:45.340Z,2.10
2022-12-09T02:47:21.204Z,1.97
2022-12-09T02:49:59.421Z,1.98
2022-12-09T02:52:30.411Z,2.13
2022-12-09T02:55:02.439Z,2.11
2022-12-09T02:57:33.221Z,2.11
2022-12-09T03:00:04.417Z,2.11
2022-12-09T03:02:37.573Z,2.15
2022-12-09T03:05:18.444Z,1.93
2022-12-09T03:08:03.409Z,1.53
2022-12-09T03:10:40.608Z,1.67
2022-12-09T03:13:16.973Z,2.11
2022-12-09T03:15:53.641Z,2.12
2022-12-09T03:18:30.134Z,2.15
2022-12-09T03:21:02.486Z,2.18
2022-12-09T03:23:32.934Z,1.39
2022-12-09T03:26:03.608Z,1.95
2022-12-09T03:28:37.002Z,2.01
2022-12-09T03:31:13.150Z,2.14
2022-12-09T03:33:44.901Z,1.77
2022-12-09T03:36:18.476Z,1.89
2022-12-09T03:38:50.315Z,2.19
2022-12-09T03:41:29.067Z,2.19
2022-12-09T03:44:04.668Z,2.17
2022-12-09T03:46:33.797Z,1.78
2022-12-09T03:49:02.628Z,2.22
2022-12-09T03:51:39.265Z,2.12
2022-12-09T03:54:18.290Z,2.29
2022-12-09T03:56:53.241Z,2.29
2022-12-09T03:59:24.972Z,1.99
2022-12-09T04:01:54.584Z,2.31
2022-12-09T04:04:24.301Z,2.30
2022-12-09T04:06:55.369Z,2.30
2022-12-09T04:09:24.263Z,2.28
2022-12-09T04:11:53.403Z,2.28
2022-12-09T04:14:22.397Z,2.28
2022-12-09T04:16:51.083Z,2.28
2022-12-09T04:19:19.736Z,2.26
2022-12-09T04:21:48.389Z,2.25
2022-12-09T04:24:18.137Z,2.15
2022-12-09T04:26:46.996Z,2.33
2022-12-09T04:29:16.012Z,2.35
2022-12-09T04:31:44.744Z,2.38
2022-12-09T04:34:14.834Z,2.19
2022-12-09T04:36:43.763Z,2.37
2022-12-09T04:39:12.675Z,2.38
2022-12-09T04:41:42.785Z,2.38
2022-12-09T04:44:11.881Z,2.40
2022-12-09T04:46:40.386Z,2.44
2022-12-09T04:49:09.501Z,2.46
2022-12-09T04:51:40.137Z,2.48
2022-12-09T04:54:13.703Z,1.43
2022-12-09T04:56:43.926Z,2.37
2022-12-09T04:59:12.878Z,2.50
2022-12-09T05:01:41.716Z,2.30
2022-12-09T05:04:11.279Z,2.48
2022-12-09T05:06:40.183Z,2.49
2022-12-09T05:09:13.440Z,2.51
2022-12-09T05:11:44.253Z,2.52
2022-12-09T05:14:13.091Z,2.53
2022-12-09T05:16:41.942Z,2.51
2022-12-09T05:19:12.321Z,2.51
2022-12-09T05:21:44.082Z,2.55
2022-12-09T05:24:13.103Z,2.58
2022-12-09T05:26:42.272Z,2.57
2022-12-09T05:29:14.296Z,2.04
2022-12-09T05:31:47.887Z,2.59
2022-12-09T05:34:16.730Z,2.49
2022-12-09T05:36:46.152Z,2.40
2022-12-09T05:39:15.269Z,2.39
2022-12-09T05:41:44.572Z,2.27
2022-12-09T05:44:14.686Z,1.55
2022-12-09T05:46:43.542Z,2.21
2022-12-09T05:49:12.715Z,2.23
2022-12-09T05:51:41.544Z,2.26
2022-12-09T05:54:11.185Z,2.31
2022-12-09T05:56:44.612Z,2.35
2022-12-09T05:59:17.904Z,2.18
2022-12-09T06:01:47.119Z,2.12
2022-12-09T06:04:16.508Z,2.07
2022-12-09T06:06:47.004Z,2.09
2022-12-09T06:09:16.091Z,2.02
2022-12-09T06:11:46.205Z,1.91
2022-12-09T06:14:15.598Z,1.87
2022-12-09T06:16:45.552Z,1.72
2022-12-09T06:19:15.405Z,1.77
2022-12-09T06:21:44.412Z,1.72
2022-12-09T06:24:13.076Z,1.67
2022-12-09T06:26:41.798Z,1.63
2022-12-09T06:29:11.664Z,1.61
2022-12-09T06:31:40.739Z,1.62
2022-12-09T06:34:11.140Z,1.65
2022-12-09T06:36:39.907Z,1.67
2022-12-09T06:39:11.087Z,1.71
2022-12-09T06:41:42.927Z,1.73
2022-12-09T06:44:17.176Z,1.77
2022-12-09T06:46:52.111Z,1.73
2022-12-09T06:49:22.297Z,1.70
2022-12-09T06:51:51.333Z,1.67
2022-12-09T06:54:20.196Z,1.66
2022-12-09T06:56:49.168Z,1.65
2022-12-09T06:59:18.294Z,1.72
2022-12-09T07:01:47.626Z,1.81
2022-12-09T07:04:16.915Z,1.93
2022-12-09T07:06:48.227Z,1.98
2022-12-09T07:09:19.951Z,1.92
2022-12-09T07:11:49.754Z,1.81
2022-12-09T07:14:20.120Z,1.95
2022-12-09T07:16:49.150Z,1.99
2022-12-09T07:19:20.119Z,1.99
2022-12-09T07:21:51.527Z,1.94
2022-12-09T07:24:21.255Z,1.97
2022-12-09T07:26:50.831Z,2.00
2022-12-09T07:29:20.113Z,2.05
2022-12-09T07:31:49.522Z,2.05
2022-12-09T07:34:21.829Z,2.08
2022-12-09T07:36:52.038Z,1.70
2022-12-09T07:39:21.772Z,1.94
2022-12-09T07:41:54.590Z,1.68
2022-12-09T07:44:23.501Z,2.21
2022-12-09T07:46:52.156Z,2.21
2022-12-09T07:49:21.122Z,2.30
2022-12-09T07:51:52.077Z,2.38
2022-12-09T07:54:22.571Z,2.24
2022-12-09T07:56:51.289Z,2.53
2022-12-09T07:59:20.362Z,2.58
2022-12-09T08:01:49.274Z,2.52
2022-12-09T08:04:18.095Z,2.38
2022-12-09T08:06:47.219Z,2.26
2022-12-09T08:09:17.575Z,2.28
2022-12-09T08:11:46.326Z,2.01
2022-12-09T08:14:15.661Z,2.24
2022-12-09T08:16:44.748Z,2.34
2022-12-09T08:19:14.689Z,2.26
2022-12-09T08:21:43.583Z,2.25
2022-12-09T08:24:13.963Z,1.92
2022-12-09T08:26:43.989Z,2.22
2022-12-09T08:29:15.161Z,2.13
2022-12-09T08:31:45.425Z,2.22
2022-12-09T08:34:15.278Z,2.37
2022-12-09T08:36:44.570Z,2.51
2022-12-09T08:39:14.859Z,2.64
2022-12-09T08:41:45.501Z,2.59
2022-12-09T08:44:17.363Z,2.22
2022-12-09T08:46:49.385Z,1.71
2022-12-09T08:49:20.199Z,2.38
2022-12-09T08:51:50.199Z,2.50
2022-12-09T08:54:19.111Z,2.50
2022-12-09T08:56:52.231Z,2.46
2022-12-09T08:59:20.970Z,2.56
2022-12-09T09:01:50.430Z,2.60
2022-12-09T09:04:22.993Z,2.67
2022-12-09T09:06:53.725Z,2.73
2022-12-09T09:09:23.760Z,2.78
2022-12-09T09:11:54.155Z,2.76
2022-12-09T09:14:22.920Z,2.74
2022-12-09T09:16:51.797Z,2.22
2022-12-09T09:19:25.713Z,2.57
2022-12-09T09:21:55.347Z,2.87
2022-12-09T09:24:26.816Z,2.81
2022-12-09T09:26:56.997Z,3.02
2022-12-09T09:29:26.318Z,2.89
2022-12-09T09:31:55.655Z,3.07
2022-12-09T09:34:26.132Z,2.90
2022-12-09T09:36:56.531Z,2.93
2022-12-09T09:39:25.907Z,2.85
2022-12-09T09:42:04.414Z,2.25
2022-12-09T09:44:41.140Z,2.61
2022-12-09T09:47:18.233Z,2.80
2022-12-09T09:49:54.638Z,2.81
2022-12-09T09:52:27.469Z,2.36
2022-12-09T09:54:57.266Z,2.72
2022-12-09T09:57:37.266Z,1.57
2022-12-09T10:00:22.376Z,2.81
2022-12-09T10:03:01.762Z,2.82
2022-12-09T10:05:35.756Z,3.17
2022-12-09T10:08:28.004Z,3.06
2022-12-09T10:11:13.376Z,3.25
2022-12-09T10:13:55.998Z,2.96
2022-12-09T10:16:31.902Z,3.01
2022-12-09T10:19:09.200Z,3.07
2022-12-09T10:21:42.840Z,2.95
2022-12-09T10:24:24.925Z,3.06
2022-12-09T10:27:06.346Z,3.28
2022-12-09T10:30:02.432Z,2.96
2022-12-09T10:32:36.599Z,3.00
2022-12-09T10:35:17.670Z,2.77
2022-12-09T10:37:47.302Z,3.09
2022-12-09T10:40:30.984Z,2.11
2022-12-09T10:43:18.440Z,2.44
2022-12-09T10:46:17.281Z,3.13
2022-12-09T10:48:52.931Z,3.16
2022-12-09T10:51:26.912Z,3.44
2022-12-09T10:54:00.148Z,3.48
2022-12-09T10:56:32.317Z,2.62
2022-12-09T10:59:27.194Z,3.30
2022-12-09T11:02:00.090Z,3.18
2022-12-09T11:04:33.946Z,3.56
2022-12-09T11:07:05.984Z,2.76
2022-12-09T11:09:40.605Z,3.52
2022-12-09T11:12:20.552Z,2.49
2022-12-09T11:14:55.549Z,3.66
2022-12-09T11:17:28.414Z,3.51
2022-12-09T11:20:20.946Z,3.03
2022-12-09T11:23:03.540Z,3.03
2022-12-09T11:25:36.088Z,3.21
2022-12-09T11:28:23.060Z,2.94
2022-12-09T11:33:54.170Z,3.44
2022-12-09T11:36:29.829Z,3.33
2022-12-09T11:39:20.607Z,3.67
2022-12-09T11:42:16.175Z,3.24
2022-12-09T11:44:57.601Z,3.15
2022-12-09T11:47:57.283Z,3.39
2022-12-09T11:50:31.401Z,2.95
2022-12-09T11:53:24.304Z,3.66
2022-12-09T11:56:00.066Z,3.66
2022-12-09T11:58:37.622Z,3.35
2022-12-09T12:01:14.249Z,3.46
2022-12-09T12:03:49.069Z,3.39
2022-12-09T12:06:25.384Z,3.28
2022-12-09T12:09:03.745Z,3.39
2022-12-09T12:11:42.778Z,3.43
2022-12-09T12:14:20.170Z,3.46
2022-12-09T12:16:59.941Z,3.88
2022-12-09T12:19:33.002Z,4.00
2022-12-09T12:22:43.947Z,3.40
2022-12-09T12:25:34.943Z,3.43
2022-12-09T12:28:57.259Z,3.57
2022-12-09T12:31:59.149Z,3.62
2022-12-09T12:34:41.048Z,3.30
2022-12-09T12:37:35.272Z,3.36
2022-12-09T12:40:15.918Z,3.28
2022-12-09T12:43:19.010Z,3.21
2022-12-09T12:46:16.372Z,2.87
2022-12-09T12:49:05.748Z,2.92
2022-12-09T12:51:42.496Z,2.98
2022-12-09T12:54:24.427Z,2.60
2022-12-09T12:57:09.406Z,2.86
2022-12-09T12:59:52.965Z,3.10
2022-12-09T13:02:37.400Z,2.95
2022-12-09T13:05:17.386Z,2.88
2022-12-09T13:07:53.819Z,3.09
2022-12-09T13:10:33.523Z,2.75
2022-12-09T13:13:06.139Z,3.01
2022-12-09T13:15:40.016Z,2.83
2022-12-09T13:18:15.701Z,3.09
2022-12-09T13:20:50.240Z,3.02
2022-12-09T13:23:41.829Z,3.08
2022-12-09T13:26:28.066Z,2.81
2022-12-09T13:29:07.867Z,3.03
2022-12-09T13:31:45.756Z,2.67
2022-12-09T13:34:29.908Z,2.80
2022-12-09T13:36:58.584Z,2.86
2022-12-09T13:39:58.174Z,2.84
2022-12-09T13:42:56.453Z,2.82
2022-12-09T13:45:35.355Z,3.01
2022-12-09T13:48:43.107Z,3.11
2022-12-09T13:51:12.232Z,3.25
2022-12-09T13:53:49.411Z,3.14
2022-12-09T13:56:26.843Z,2.93
2022-12-09T13:59:40.041Z,3.01
2022-12-09T14:02:23.850Z,3.01
2022-12-09T14:05:02.629Z,2.96
2022-12-09T14:07:39.663Z,1.72
2022-12-09T14:10:39.626Z,2.54
2022-12-09T14:13:28.996Z,2.86
2022-12-09T14:16:35.797Z,3.00
2022-12-09T14:19:52.610Z,2.82
2022-12-09T14:22:40.174Z,2.74
2022-12-09T14:26:06.992Z,2.83
2022-12-09T14:28:56.601Z,2.69
2022-12-09T14:31:52.548Z,2.75
2022-12-09T14:34:39.677Z,2.69
2022-12-09T14:37:53.955Z,2.79
2022-12-09T14:40:39.774Z,2.71
2022-12-09T14:43:53.031Z,2.64
2022-12-09T14:46:30.101Z,2.44
2022-12-09T14:49:05.363Z,2.77
2022-12-09T14:51:39.933Z,2.64
2022-12-09T14:54:17.070Z,2.62
2022-12-09T14:56:49.851Z,2.26
2022-12-09T14:59:22.035Z,2.53
2022-12-09T15:01:57.265Z,2.38
2022-12-09T15:04:34.348Z,2.21
2022-12-09T15:07:11.668Z,2.25
2022-12-09T15:09:49.719Z,1.52
2022-12-09T15:12:19.355Z,2.46
2022-12-09T15:14:50.320Z,2.20
2022-12-09T15:17:28.389Z,2.02
2022-12-09T15:20:00.852Z,1.83
2022-12-09T15:22:33.127Z,1.89
2022-12-09T15:25:03.162Z,1.89
2022-12-09T15:27:31.844Z,1.96
2022-12-09T15:30:00.522Z,1.90
2022-12-09T15:32:31.614Z,1.67
2022-12-09T15:35:19.455Z,0.95
2022-12-09T15:37:52.080Z,1.24
2022-12-09T15:40:23.072Z,1.86
2022-12-09T15:42:56.988Z,1.95
2022-12-09T15:45:29.507Z,1.89
2022-12-09T15:48:04.796Z,1.39
2022-12-09T15:50:42.791Z,1.80
2022-12-09T15:53:19.927Z,0.69
2022-12-09T15:55:54.314Z,1.81
2022-12-09T15:58:30.175Z,1.84
2022-12-09T16:00:59.335Z,1.72
2022-12-09T16:03:32.253Z,1.74
2022-12-09T16:06:07.360Z,1.16
2022-12-09T16:08:39.562Z,1.47
2022-12-09T16:11:08.888Z,1.55
2022-12-09T16:13:37.730Z,1.48
2022-12-09T16:16:27.806Z,1.44
2022-12-09T16:18:56.645Z,1.50
2022-12-09T16:21:32.855Z,1.45
2022-12-09T16:24:12.829Z,1.46
2022-12-09T16:26:48.581Z,1.45
2022-12-09T16:29:26.828Z,1.56
2022-12-09T16:32:25.870Z,1.35
2022-12-09T16:34:57.986Z,0.81
2022-12-09T16:37:39.454Z,0.26
2022-12-09T16:40:59.914Z,0.70
2022-12-09T16:43:30.514Z,1.32
2022-12-09T16:46:00.901Z,1.29
2022-12-09T16:48:31.816Z,1.33
2022-12-09T16:51:11.505Z,1.34
2022-12-09T16:53:46.500Z,1.43
2022-12-09T16:56:21.331Z,1.43
2022-12-09T16:58:50.413Z,1.35
2022-12-09T17:01:21.817Z,0.97
2022-12-09T17:03:54.771Z,1.36
2022-12-09T17:06:23.465Z,1.41
2022-12-09T17:08:53.484Z,1.42
2022-12-09T17:11:22.260Z,1.40
2022-12-09T17:13:51.234Z,1.38
2022-12-09T17:16:22.270Z,1.50
2022-12-09T17:18:51.440Z,1.48
2022-12-09T17:21:20.372Z,1.44
2022-12-09T17:23:49.806Z,0.88
2022-12-09T17:26:21.528Z,1.10
2022-12-09T17:28:56.816Z,1.33
2022-12-09T17:31:30.481Z,1.28
2022-12-09T17:33:59.321Z,0.72
2022-12-09T17:36:28.049Z,1.29
2022-12-09T17:38:56.743Z,1.19
2022-12-09T17:41:26.529Z,1.24
2022-12-09T17:43:57.727Z,1.37
2022-12-09T17:46:26.653Z,1.30
2022-12-09T17:48:55.058Z,0.93
2022-12-09T17:51:23.449Z,1.04
2022-12-09T17:53:52.104Z,1.14
2022-12-09T17:56:23.570Z,1.04
2022-12-09T17:58:59.793Z,0.97
2022-12-09T18:01:28.334Z,0.99
2022-12-09T18:04:02.900Z,0.72
2022-12-09T18:06:37.329Z,0.86
2022-12-09T18:09:08.747Z,0.79
2022-12-09T18:11:37.816Z,0.73
2022-12-09T18:14:07.958Z,0.11
2022-12-09T18:16:36.963Z,0.69
2022-12-09T18:19:08.665Z,0.66
2022-12-09T18:21:37.697Z,0.72
2022-12-09T18:24:06.819Z,0.70
2022-12-09T18:26:41.393Z,0.82
2022-12-09T18:29:12.581Z,0.44
2022-12-09T18:31:45.546Z,0.87
2022-12-09T18:34:14.277Z,0.94
2022-12-09T18:36:43.044Z,0.96
2022-12-09T18:39:11.707Z,0.92
2022-12-09T18:41:40.279Z,0.92
2022-12-09T18:44:09.620Z,0.94
2022-12-09T18:46:41.969Z,1.08
2022-12-09T18:49:14.316Z,0.97
2022-12-09T18:51:46.525Z,0.23
2022-12-09T18:54:19.630Z,1.22
2022-12-09T18:56:48.432Z,1.13
2022-12-09T18:59:17.183Z,1.19
2022-12-09T19:01:49.195Z,1.03
2022-12-09T19:04:20.762Z,1.16
2022-12-09T19:06:52.500Z,1.25
2022-12-09T19:09:23.965Z,0.69
2022-12-09T19:11:54.245Z,1.29
2022-12-09T19:14:25.027Z,1.25
2022-12-09T19:16:55.027Z,1.07
2022-12-09T19:19:26.254Z,0.99
2022-12-09T19:21:56.245Z,0.73
2022-12-09T19:24:27.612Z,1.12
2022-12-09T19:26:57.985Z,1.13
2022-12-09T19:29:28.049Z,1.15
2022-12-09T19:31:58.522Z,0.90
2022-12-09T19:34:29.304Z,1.03
2022-12-09T19:37:01.274Z,1.32
2022-12-09T19:39:33.961Z,1.32
2022-12-09T19:42:04.968Z,1.14
2022-12-09T19:47:23.653Z,0.66
2022-12-09T19:49:52.332Z,1.20
2022-12-09T19:52:21.038Z,1.22
2022-12-09T19:54:49.389Z,0.93
2022-12-09T19:57:18.017Z,1.29
2022-12-09T19:59:47.418Z,1.09
2022-12-09T20:02:16.334Z,0.95
2022-12-09T20:04:49.060Z,0.28
2022-12-09T20:07:18.262Z,0.98
2022-12-09T20:09:46.931Z,0.99
2022-12-09T20:12:16.059Z,1.08
2022-12-09T20:14:44.876Z,0.95
2022-12-09T20:17:13.218Z,0.83
2022-12-09T20:19:41.918Z,0.95
2022-12-09T20:22:11.618Z,0.91
2022-12-09T20:24:40.199Z,0.96
2022-12-09T20:27:08.860Z,0.97
2022-12-09T20:29:38.503Z,0.98
2022-12-09T20:32:09.018Z,0.92
2022-12-09T20:34:38.114Z,0.94
2022-12-09T20:37:07.261Z,0.95
2022-12-09T20:39:38.595Z,0.84
2022-12-09T20:42:07.163Z,0.87
2022-12-09T20:44:35.897Z,0.88
2022-12-09T20:47:04.727Z,0.90
2022-12-09T20:49:33.062Z,0.79
2022-12-09T20:52:01.783Z,0.83
2022-12-09T20:54:30.879Z,0.87
2022-12-09T20:57:01.585Z,0.87
2022-12-09T20:59:30.443Z,0.90
2022-12-09T21:01:59.133Z,0.80
2022-12-09T21:04:27.861Z,0.75
2022-12-09T21:06:56.545Z,0.80
2022-12-09T21:09:27.283Z,0.87
2022-12-09T21:11:57.079Z,0.90
2022-12-09T21:14:32.466Z,0.93
2022-12-09T21:17:02.113Z,0.95
2022-12-09T21:19:32.456Z,0.87
2022-12-09T21:22:01.220Z,0.87
2022-12-09T21:24:29.839Z,0.80
2022-12-09T21:26:58.481Z,0.78
2022-12-09T21:29:32.013Z,0.77
2022-12-09T21:32:02.458Z,0.45
2022-12-09T21:34:31.747Z,0.97
2022-12-09T21:37:02.291Z,0.71
2022-12-09T21:39:31.205Z,0.60
2022-12-09T21:41:59.866Z,0.57
2022-12-09T21:44:31.258Z,0.59
2022-12-09T21:47:00.016Z,0.55
2022-12-09T21:49:29.736Z,0.63
2022-12-09T21:51:58.513Z,0.65
2022-12-09T21:54:27.204Z,0.71
2022-12-09T21:56:55.932Z,0.79
2022-12-09T21:59:24.701Z,0.81
2022-12-09T22:01:55.999Z,0.81
2022-12-09T22:04:24.789Z,0.88
2022-12-09T22:06:54.650Z,0.92
2022-12-09T22:09:24.691Z,0.90
2022-12-09T22:11:53.387Z,0.91
2022-12-09T22:14:22.058Z,0.87
2022-12-09T22:16:50.805Z,0.87
2022-12-09T22:19:22.059Z,0.44
2022-12-09T22:21:51.122Z,0.80
2022-12-09T22:24:20.142Z,0.73
2022-12-09T22:26:49.025Z,0.04
2022-12-09T22:29:18.755Z,0.81
2022-12-09T22:31:47.800Z,0.70
2022-12-09T22:34:21.187Z,0.91
2022-12-09T22:36:51.049Z,0.66
2022-12-09T22:39:23.058Z,0.98
2022-12-09T22:41:52.485Z,0.96
2022-12-09T22:44:21.898Z,1.00
2022-12-09T22:46:50.800Z,0.95
2022-12-09T22:49:20.783Z,0.92
2022-12-09T22:51:49.758Z,0.98
2022-12-09T22:54:19.064Z,0.96
2022-12-09T22:56:47.772Z,0.96
2022-12-09T22:59:17.295Z,1.01
2022-12-09T23:01:48.433Z,0.82
2022-12-09T23:04:22.714Z,0.94
2022-12-09T23:06:52.002Z,1.06
2022-12-09T23:09:23.203Z,0.86
2022-12-09T23:11:53.396Z,1.12
2022-12-09T23:14:22.291Z,0.96
2022-12-09T23:16:50.902Z,0.96
2022-12-09T23:19:20.637Z,0.98
2022-12-09T23:21:49.268Z,0.96
2022-12-09T23:24:24.313Z,0.98
2022-12-09T23:26:56.714Z,0.75
2022-12-09T23:29:25.549Z,1.01
2022-12-09T23:31:54.375Z,1.07
2022-12-09T23:34:24.167Z,1.06
2022-12-09T23:36:53.001Z,0.84
2022-12-09T23:39:21.586Z,0.98
2022-12-09T23:41:50.322Z,0.94
2022-12-09T23:44:20.429Z,0.78
2022-12-09T23:46:49.333Z,1.02
2022-12-09T23:49:18.311Z,1.01
2022-12-09T23:51:48.119Z,0.09
2022-12-09T23:54:19.102Z,1.07
2022-12-09T23:56:50.622Z,1.05
2022-12-09T23:59:22.293Z,0.61
